Weather at Nuremberg Airport

Public forecast

Using degrees Celsius for public forecast. Weather courtesy of forecast.io.

Current aviation weather report (METAR) for Nuremberg Airport

Report is more than 6 hours old.

2022/11/14 15:20 (retrieved 2 years ago)

EDDN 141520Z AUTO 13006KT 110V170 CAVOK 11/06 Q1016 NOSIG

Aviation forecast (TAF) for Nuremberg Airport

Forecast is more than 12 hours old.

2023/02/22 18:37 (retrieved 1 year ago)

TAF EDDN 221700Z 2218/2318 VRB02KT CAVOK PROB40 TEMPO 2304/2315 SHRA BKN008TCU